Date,TemperatureHighF,TemperatureAvgF,TemperatureLowF,DewpointHighF,DewpointAvgF,DewpointLowF,HumidityHigh,HumidityAvg,HumidityLow,PressureMaxIn,PressureMinIn,WindSpeedMaxMPH,WindSpeedAvgMPH,GustSpeedMaxMPH,PrecipitationSumIn
2013-2-1,28.9,21.4,15.3,18.3,3.4,-10.8,83,49,30,30.03,29.50,20,4,22,0.00
2013-2-2,23.5,16.9,8.2,13.6,3.0,-5.5,81,56,30,30.16,29.99,12,1,13,0.00
2013-2-3,30.2,21.0,12.0,19.6,14.0,9.0,93,76,53,30.00,29.68,11,0,12,0.00
2013-2-4,28.6,19.8,13.1,14.3,2.4,-12.7,86,52,30,29.86,29.66,23,4,27,0.00
2013-2-5,28.0,15.3,3.9,6.8,-6.2,-18.7,63,39,30,29.99,29.85,14,1,15,0.00
2013-2-6,36.0,23.1,14.4,26.6,8.8,-11.6,89,58,30,30.26,29.89,23,3,27,0.00
2013-2-7,23.5,14.7,6.6,-3.6,-11.3,-18.6,30,30,30,30.50,30.25,16,2,17,0.00
2013-2-8,18.1,15.6,12.9,14.5,5.4,-11.3,93,68,30,30.45,29.81,13,1,14,0.00
2013-2-9,17.8,14.2,8.6,17.4,6.1,-15.3,99,73,30,30.18,29.75,23,5,28,0.00
2013-2-10,36.0,16.2,4.1,7.1,-7.5,-20.6,62,35,30,30.37,30.18,17,2,23,0.00
2013-2-11,25.3,17.5,6.3,25.3,14.0,-4.1,100,87,62,30.31,29.58,3,0,3,0.00
2013-2-12,42.3,33.8,24.1,36.7,30.9,23.9,100,90,72,29.80,29.57,25,4,28,0.00
2013-2-13,37.9,30.3,23.4,30.7,25.1,20.2,95,82,63,29.82,29.71,9,1,11,0.00
2013-2-14,41.7,28.3,20.8,31.7,23.3,18.9,100,83,53,29.95,29.68,14,1,15,0.00
2013-2-15,48.9,30.4,18.5,36.4,25.4,16.4,99,84,50,29.95,29.83,17,1,18,0.00
2013-2-16,37.6,30.6,22.5,32.1,20.0,-4.5,100,70,30,29.94,29.74,13,2,15,0.00
2013-2-17,22.5,16.4,10.6,5.8,-6.5,-14.9,62,36,30,29.74,29.40,24,7,31,0.00
2013-2-18,29.8,16.7,7.2,1.9,-6.7,-16.1,48,35,30,30.07,29.63,26,7,36,0.00
2013-2-19,37.6,25.0,10.2,32.5,7.5,-15.3,100,52,30,30.12,29.53,12,1,13,0.00
2013-2-20,32.9,28.4,20.1,32.5,22.8,11.3,100,80,60,29.70,29.48,25,5,30,0.00
2013-2-21,26.4,19.6,14.4,15.2,9.8,2.3,80,66,42,30.20,29.69,20,3,23,0.00
2013-2-22,39.2,26.8,13.1,27.5,20.5,9.7,98,79,51,30.38,30.20,12,1,17,0.00
2013-2-23,34.0,30.8,27.9,34.0,29.6,22.7,100,95,80,30.28,29.93,6,0,6,0.00
2013-2-24,36.1,32.2,30.2,36.0,32.2,30.0,100,100,100,29.94,29.74,0,0,5,0.00
2013-2-25,38.3,31.8,24.4,38.3,31.8,24.4,100,100,100,30.20,29.87,8,0,11,0.00
2013-2-26,38.3,33.3,30.7,38.1,33.3,30.7,100,100,100,30.31,30.16,8,0,8,0.00
2013-2-27,33.8,32.0,30.6,33.8,32.0,30.6,100,100,100,30.17,29.64,16,2,21,0.00
2013-2-28,44.8,34.5,29.3,44.8,34.5,29.3,100,100,99,29.64,29.51,5,0,6,0.00